createdAt,value
2023-03-26T00:01:51.815Z,96722.97
2023-03-26T00:04:19.872Z,96731.81
2023-03-26T00:06:49.171Z,96733.53
2023-03-26T00:09:17.896Z,96732.25
2023-03-26T00:11:48.625Z,96725.47
2023-03-26T00:14:18.007Z,96733.75
2023-03-26T00:16:47.656Z,96737.34
2023-03-26T00:19:15.769Z,96743.56
2023-03-26T00:21:43.342Z,96739.19
2023-03-26T00:24:16.279Z,96738.13
2023-03-26T00:26:45.014Z,96731.56
2023-03-26T00:29:14.059Z,96737.22
2023-03-26T00:31:46.742Z,96747.34
2023-03-26T00:34:18.653Z,96739.50
2023-03-26T00:36:47.320Z,96743.97
2023-03-26T00:39:15.403Z,96751.59
2023-03-26T00:41:43.426Z,96747.91
2023-03-26T00:44:11.770Z,96755.28
2023-03-26T00:46:39.693Z,96760.94
2023-03-26T00:49:11.056Z,96757.81
2023-03-26T00:51:39.405Z,96751.06
2023-03-26T00:54:09.857Z,96748.88
2023-03-26T00:56:39.017Z,96737.81
2023-03-26T00:59:06.659Z,96731.59
2023-03-26T01:01:34.173Z,96741.59
2023-03-26T01:04:31.655Z,96740.13
2023-03-26T01:07:03.064Z,96738.72
2023-03-26T01:09:35.159Z,96728.13
2023-03-26T01:12:05.073Z,96723.88
2023-03-26T01:14:32.826Z,96722.84
2023-03-26T01:17:03.203Z,96719.28
2023-03-26T01:19:52.093Z,96722.97
2023-03-26T01:22:22.759Z,96718.13
2023-03-26T01:24:56.469Z,96729.97
2023-03-26T01:27:35.949Z,96731.94
2023-03-26T01:30:07.340Z,96731.38
2023-03-26T01:32:58.390Z,96725.94
2023-03-26T01:35:35.471Z,96734.13
2023-03-26T01:38:11.006Z,96723.75
2023-03-26T01:41:00.238Z,96728.81
2023-03-26T01:43:36.608Z,96726.88
2023-03-26T01:46:08.290Z,96735.38
2023-03-26T01:48:47.010Z,96727.78
2023-03-26T01:51:26.299Z,96719.47
2023-03-26T01:53:55.439Z,96730.19
2023-03-26T01:56:33.783Z,96731.34
2023-03-26T01:59:16.945Z,96730.19
2023-03-26T02:02:12.085Z,96737.88
2023-03-26T02:05:22.206Z,96728.13
2023-03-26T02:07:58.629Z,96729.41
2023-03-26T02:10:29.890Z,96717.53
2023-03-26T02:12:58.903Z,96722.72
2023-03-26T02:15:26.521Z,96722.50
2023-03-26T02:17:59.834Z,96722.03
2023-03-26T02:20:30.227Z,96720.91
2023-03-26T02:22:58.064Z,96739.19
2023-03-26T02:25:26.085Z,96742.88
2023-03-26T02:27:54.710Z,96743.44
2023-03-26T02:30:29.855Z,96737.59
2023-03-26T02:33:00.292Z,96740.78
2023-03-26T02:35:36.159Z,96741.16
2023-03-26T02:38:04.015Z,96745.63
2023-03-26T02:40:31.462Z,96742.88
2023-03-26T02:42:59.576Z,96744.03
2023-03-26T02:45:32.790Z,96731.38
2023-03-26T02:48:06.371Z,96746.00
2023-03-26T02:50:46.663Z,96735.03
2023-03-26T02:53:30.812Z,96751.31
2023-03-26T02:56:17.128Z,96731.59
2023-03-26T02:58:58.483Z,96743.00
2023-03-26T03:01:26.199Z,96740.34
2023-03-26T03:03:55.799Z,96733.31
2023-03-26T03:06:38.455Z,96731.94
2023-03-26T03:09:08.640Z,96739.53
2023-03-26T03:11:37.246Z,96747.28
2023-03-26T03:14:06.022Z,96739.31
2023-03-26T03:16:34.557Z,96736.53
2023-03-26T03:19:10.828Z,96728.13
2023-03-26T03:21:40.409Z,96737.34
2023-03-26T03:24:09.587Z,96743.78
2023-03-26T03:26:42.497Z,96738.06
2023-03-26T03:29:28.639Z,96744.03
2023-03-26T03:32:00.555Z,96744.50
2023-03-26T03:34:43.368Z,96744.63
2023-03-26T03:37:11.162Z,96742.63
2023-03-26T03:39:51.085Z,96747.03
2023-03-26T03:42:21.727Z,96746.31
2023-03-26T03:44:51.958Z,96748.38
2023-03-26T03:47:39.835Z,96745.75
2023-03-26T03:50:09.460Z,96751.69
2023-03-26T03:52:39.888Z,96744.44
2023-03-26T03:55:07.892Z,96748.38
2023-03-26T03:57:43.115Z,96738.69
2023-03-26T04:00:16.319Z,96739.53
2023-03-26T04:02:46.369Z,96736.88
2023-03-26T04:05:15.476Z,96729.75
2023-03-26T04:07:49.036Z,96731.69
2023-03-26T04:10:22.599Z,96733.09
2023-03-26T04:13:25.885Z,96736.88
2023-03-26T04:16:11.827Z,96740.09
2023-03-26T04:18:40.120Z,96735.25
2023-03-26T04:21:16.009Z,96734.09
2023-03-26T04:23:45.888Z,96738.16
2023-03-26T04:26:33.589Z,96730.88
2023-03-26T04:29:13.068Z,96730.75
2023-03-26T04:31:43.256Z,96732.50
2023-03-26T04:34:24.601Z,96724.94
2023-03-26T04:37:26.665Z,96728.72
2023-03-26T04:40:12.365Z,96731.13
2023-03-26T04:42:50.344Z,96730.91
2023-03-26T04:45:40.819Z,96724.91
2023-03-26T04:48:14.383Z,96732.50
2023-03-26T04:50:43.221Z,96735.75
2023-03-26T04:53:17.270Z,96725.94
2023-03-26T04:56:58.482Z,96729.88
2023-03-26T04:59:43.167Z,96717.19
2023-03-26T05:02:14.377Z,96718.81
2023-03-26T05:04:53.930Z,96715.81
2023-03-26T05:07:24.280Z,96714.78
2023-03-26T05:09:57.719Z,96716.03
2023-03-26T05:12:42.261Z,96711.44
2023-03-26T05:15:15.753Z,96715.47
2023-03-26T05:17:52.254Z,96714.56
2023-03-26T05:20:30.518Z,96721.34
2023-03-26T05:22:58.361Z,96715.34
2023-03-26T05:25:37.424Z,96721.09
2023-03-26T05:28:11.864Z,96720.44
2023-03-26T05:30:48.381Z,96729.75
2023-03-26T05:33:16.555Z,96729.31
2023-03-26T05:36:03.895Z,96728.94
2023-03-26T05:38:34.280Z,96732.75
2023-03-26T05:41:06.860Z,96737.00
2023-03-26T05:43:36.471Z,96732.63
2023-03-26T05:46:13.380Z,96734.94
2023-03-26T05:48:41.245Z,96737.59
2023-03-26T05:51:09.002Z,96740.69
2023-03-26T05:53:41.996Z,96740.25
2023-03-26T05:56:10.670Z,96741.50
2023-03-26T05:58:57.442Z,96748.28
2023-03-26T06:01:45.035Z,96747.34
2023-03-26T06:04:13.849Z,96744.94
2023-03-26T06:06:47.889Z,96747.47
2023-03-26T06:09:15.768Z,96736.75
2023-03-26T06:11:43.729Z,96745.03
2023-03-26T06:14:11.394Z,96743.94
2023-03-26T06:16:44.478Z,96748.31
2023-03-26T06:19:22.119Z,96751.66
2023-03-26T06:21:57.702Z,96742.84
2023-03-26T06:24:45.131Z,96742.47
2023-03-26T06:27:31.484Z,96739.25
2023-03-26T06:30:26.774Z,96734.59
2023-03-26T06:33:06.776Z,96732.19
2023-03-26T06:35:43.004Z,96734.78
2023-03-26T06:38:11.571Z,96733.84
2023-03-26T06:40:39.346Z,96722.25
2023-03-26T06:43:20.517Z,96724.97
2023-03-26T06:45:52.175Z,96730.28
2023-03-26T06:48:52.332Z,96735.13
2023-03-26T06:51:22.426Z,96729.16
2023-03-26T06:54:16.849Z,96733.69
2023-03-26T06:56:45.192Z,96731.34
2023-03-26T06:59:39.077Z,96732.88
2023-03-26T07:02:25.080Z,96731.25
2023-03-26T07:05:11.031Z,96725.47
2023-03-26T07:07:57.692Z,96731.34
2023-03-26T07:10:43.663Z,96734.31
2023-03-26T07:13:29.834Z,96731.44
2023-03-26T07:16:23.867Z,96733.34
2023-03-26T07:19:23.579Z,96730.88
2023-03-26T07:21:52.965Z,96728.38
2023-03-26T07:24:39.026Z,96725.41
2023-03-26T07:27:28.314Z,96726.03
2023-03-26T07:30:09.342Z,96734.16
2023-03-26T07:33:18.611Z,96736.03
2023-03-26T07:36:08.214Z,96729.25
2023-03-26T07:39:10.862Z,96720.66
2023-03-26T07:42:24.581Z,96732.47
2023-03-26T07:45:27.118Z,96734.91
2023-03-26T07:48:28.289Z,96721.34
2023-03-26T07:51:18.785Z,96731.09
2023-03-26T07:54:10.827Z,96722.75
2023-03-26T07:57:12.967Z,96731.84
2023-03-26T08:00:05.262Z,96725.66
2023-03-26T08:03:15.455Z,96724.50
2023-03-26T08:06:22.469Z,96716.13
2023-03-26T08:09:12.004Z,96719.63
2023-03-26T08:12:04.754Z,96713.28
2023-03-26T08:14:47.056Z,96712.00
2023-03-26T08:17:34.985Z,96707.22
2023-03-26T08:20:10.580Z,96708.03
2023-03-26T08:22:43.438Z,96703.53
2023-03-26T08:25:24.567Z,96702.38
2023-03-26T08:28:12.875Z,96699.88
2023-03-26T08:30:40.688Z,96708.47
2023-03-26T08:33:22.548Z,96700.72
2023-03-26T08:35:50.721Z,96697.44
2023-03-26T08:38:20.241Z,96693.44
2023-03-26T08:41:19.577Z,96690.78
2023-03-26T08:43:50.044Z,96696.56
2023-03-26T08:46:55.960Z,96700.56
2023-03-26T08:49:44.780Z,96704.91
2023-03-26T08:52:24.806Z,96703.03
2023-03-26T08:55:03.991Z,96689.38
2023-03-26T08:58:09.738Z,96702.94
2023-03-26T09:00:57.743Z,96697.16
2023-03-26T09:03:31.276Z,96696.34
2023-03-26T09:06:37.467Z,96688.66
2023-03-26T09:09:19.069Z,96684.09
2023-03-26T09:12:20.027Z,96686.00
2023-03-26T09:15:07.656Z,96684.06
2023-03-26T09:17:37.860Z,96676.44
2023-03-26T09:20:25.318Z,96674.63
2023-03-26T09:23:15.122Z,96669.28
2023-03-26T09:25:57.991Z,96672.75
2023-03-26T09:28:56.068Z,96658.41
2023-03-26T09:31:32.876Z,96660.91
2023-03-26T09:34:28.323Z,96655.78
2023-03-26T09:37:18.755Z,96647.00
2023-03-26T09:40:15.727Z,96637.31
2023-03-26T09:43:19.563Z,96626.81
2023-03-26T09:46:19.270Z,96627.31
2023-03-26T09:49:24.895Z,96624.38
2023-03-26T09:52:23.255Z,96617.50
2023-03-26T09:55:20.409Z,96626.31
2023-03-26T09:58:11.457Z,96629.22
2023-03-26T10:00:53.482Z,96623.09
2023-03-26T10:03:32.484Z,96626.94
2023-03-26T10:06:15.097Z,96620.25
2023-03-26T10:09:15.650Z,96621.06
2023-03-26T10:12:01.441Z,96613.00
2023-03-26T10:15:01.641Z,96609.19
2023-03-26T10:17:45.034Z,96611.16
2023-03-26T10:20:50.559Z,96608.13
2023-03-26T10:23:31.067Z,96592.00
2023-03-26T10:26:25.041Z,96590.63
2023-03-26T10:29:17.966Z,96585.84
2023-03-26T10:31:51.665Z,96575.44
2023-03-26T10:34:37.474Z,96583.59
2023-03-26T10:37:19.524Z,96573.09
2023-03-26T10:40:10.332Z,96560.91
2023-03-26T10:42:53.633Z,96560.19
2023-03-26T10:45:42.522Z,96556.53
2023-03-26T10:48:24.557Z,96551.59
2023-03-26T10:51:13.884Z,96547.53
2023-03-26T10:53:50.371Z,96538.47
2023-03-26T10:56:28.418Z,96537.97
2023-03-26T10:58:57.133Z,96542.94
2023-03-26T11:01:32.873Z,96526.84
2023-03-26T11:04:11.083Z,96533.59
2023-03-26T11:06:51.192Z,96526.13
2023-03-26T11:09:44.978Z,96517.75
2023-03-26T11:12:26.508Z,96514.84
2023-03-26T11:15:13.671Z,96514.09
2023-03-26T11:17:53.172Z,96514.16
2023-03-26T11:20:24.476Z,96512.41
2023-03-26T11:23:12.033Z,96504.19
2023-03-26T11:25:57.874Z,96503.94
2023-03-26T11:29:31.819Z,96499.53
2023-03-26T11:32:21.282Z,96501.66
2023-03-26T11:35:08.534Z,96501.03
2023-03-26T11:37:42.893Z,96498.91
2023-03-26T11:40:51.165Z,96488.09
2023-03-26T11:44:25.244Z,96474.84
2023-03-26T11:47:01.526Z,96470.16
2023-03-26T11:49:29.591Z,96473.84
2023-03-26T11:51:57.184Z,96465.84
2023-03-26T11:54:24.601Z,96470.63
2023-03-26T11:57:05.668Z,96465.78
2023-03-26T11:59:56.492Z,96467.47
2023-03-26T12:02:39.457Z,96472.44
2023-03-26T12:05:29.590Z,96476.94
2023-03-26T12:08:02.714Z,96469.53
2023-03-26T12:10:41.455Z,96475.94
2023-03-26T12:13:22.951Z,96466.31
2023-03-26T12:15:50.449Z,96475.81
2023-03-26T12:18:25.185Z,96474.94
2023-03-26T12:21:17.085Z,96458.63
2023-03-26T12:23:51.123Z,96458.34
2023-03-26T12:26:36.070Z,96459.94
2023-03-26T12:29:11.976Z,96454.78
2023-03-26T12:31:55.076Z,96454.13
2023-03-26T12:34:35.950Z,96457.44
2023-03-26T12:37:05.856Z,96452.59
2023-03-26T12:40:10.130Z,96456.88
2023-03-26T12:44:44.496Z,96455.22
2023-03-26T12:45:38.961Z,96453.72
2023-03-26T12:48:08.053Z,96452.25
2023-03-26T12:50:57.557Z,96449.63
2023-03-26T12:53:48.960Z,96446.09
2023-03-26T12:56:36.425Z,96448.63
2023-03-26T12:59:46.850Z,96448.09
2023-03-26T13:02:33.290Z,96452.19
2023-03-26T13:05:30.154Z,96444.22
2023-03-26T13:08:03.601Z,96445.97
2023-03-26T13:10:58.397Z,96436.31
2023-03-26T13:13:36.435Z,96432.28
2023-03-26T13:16:53.306Z,96439.16
2023-03-26T13:19:23.748Z,96440.28
2023-03-26T13:21:58.728Z,96450.53
2023-03-26T13:24:34.392Z,96446.13
2023-03-26T13:27:09.796Z,96438.25
2023-03-26T13:29:57.436Z,96444.00
2023-03-26T13:32:52.202Z,96452.31
2023-03-26T13:35:47.106Z,96444.31
2023-03-26T13:38:36.072Z,96441.91
2023-03-26T13:41:34.987Z,96441.66
2023-03-26T13:44:08.529Z,96437.63
2023-03-26T13:46:43.372Z,96435.25
2023-03-26T13:49:15.721Z,96437.34
2023-03-26T13:52:05.953Z,96439.41
2023-03-26T13:54:44.260Z,96432.72
2023-03-26T13:57:14.725Z,96438.44
2023-03-26T13:59:57.526Z,96439.16
2023-03-26T14:02:36.090Z,96441.72
2023-03-26T14:05:06.403Z,96443.75
2023-03-26T14:08:02.438Z,96447.06
2023-03-26T14:10:40.589Z,96443.50
2023-03-26T14:13:21.788Z,96451.81
2023-03-26T14:15:49.275Z,96447.81
2023-03-26T14:18:16.661Z,96450.22
2023-03-26T14:21:15.600Z,96452.66
2023-03-26T14:24:02.181Z,96453.06
2023-03-26T14:27:05.633Z,96457.13
2023-03-26T14:30:07.288Z,96455.88
2023-03-26T14:32:53.214Z,96452.88
2023-03-26T14:35:47.350Z,96448.69
2023-03-26T14:38:38.201Z,96447.19
2023-03-26T14:41:24.583Z,96440.78
2023-03-26T14:44:24.343Z,96440.88
2023-03-26T14:47:15.094Z,96438.94
2023-03-26T14:50:04.088Z,96437.44
2023-03-26T14:52:48.065Z,96437.19
2023-03-26T14:55:52.305Z,96436.44
2023-03-26T14:58:37.845Z,96429.91
2023-03-26T15:01:25.344Z,96440.38
2023-03-26T15:04:33.432Z,96435.41
2023-03-26T15:07:38.340Z,96429.75
2023-03-26T15:10:16.957Z,96431.56
2023-03-26T15:13:19.806Z,96429.03
2023-03-26T15:16:12.390Z,96421.06
2023-03-26T15:19:13.438Z,96423.66
2023-03-26T15:22:10.718Z,96423.97
2023-03-26T15:25:10.953Z,96420.84
2023-03-26T15:27:57.579Z,96427.41
2023-03-26T15:31:06.701Z,96420.75
2023-03-26T15:34:00.582Z,96414.28
2023-03-26T15:36:44.790Z,96409.38
2023-03-26T15:39:12.138Z,96419.44
2023-03-26T15:41:39.709Z,96416.84
2023-03-26T15:44:43.779Z,96413.13
2023-03-26T15:47:32.900Z,96423.00
2023-03-26T15:50:14.408Z,96418.28
2023-03-26T15:53:04.545Z,96409.03
2023-03-26T15:55:40.391Z,96413.69
2023-03-26T15:58:27.497Z,96413.25
2023-03-26T16:01:04.380Z,96413.88
2023-03-26T16:03:49.489Z,96410.16
2023-03-26T16:06:22.769Z,96415.78
2023-03-26T16:09:04.810Z,96418.69
2023-03-26T16:11:51.010Z,96403.56
2023-03-26T16:14:24.371Z,96412.13
2023-03-26T16:16:58.120Z,96413.16
2023-03-26T16:19:36.313Z,96414.28
2023-03-26T16:22:07.798Z,96419.03
2023-03-26T16:24:40.057Z,96412.16
2023-03-26T16:27:32.267Z,96415.94
2023-03-26T16:30:25.413Z,96410.06
2023-03-26T16:32:56.373Z,96413.31
2023-03-26T16:35:46.605Z,96412.28
2023-03-26T16:38:16.291Z,96410.38
2023-03-26T16:41:15.326Z,96405.25
2023-03-26T16:44:10.692Z,96408.69
2023-03-26T16:46:50.714Z,96417.44
2023-03-26T16:49:26.828Z,96417.34
2023-03-26T16:52:09.813Z,96412.03
2023-03-26T16:55:04.302Z,96411.25
2023-03-26T16:57:48.142Z,96416.06
2023-03-26T17:00:23.720Z,96413.22
2023-03-26T17:02:54.035Z,96411.84
2023-03-26T17:05:37.975Z,96414.28
2023-03-26T17:08:35.539Z,96414.94
2023-03-26T17:11:28.229Z,96416.41
2023-03-26T17:14:34.416Z,96414.25
2023-03-26T17:17:23.452Z,96420.13
2023-03-26T17:20:17.134Z,96417.78
2023-03-26T17:23:28.724Z,96415.00
2023-03-26T17:26:19.955Z,96414.44
2023-03-26T17:29:02.080Z,96420.00
2023-03-26T17:31:42.905Z,96421.59
2023-03-26T17:34:31.943Z,96424.44
2023-03-26T17:37:03.842Z,96423.19
2023-03-26T17:39:40.538Z,96418.34
2023-03-26T17:42:16.572Z,96418.06
2023-03-26T17:45:03.747Z,96424.94
2023-03-26T17:47:52.897Z,96425.97
2023-03-26T17:50:30.376Z,96426.53
2023-03-26T17:53:02.145Z,96432.41
2023-03-26T17:55:32.575Z,96433.19
2023-03-26T17:58:03.008Z,96430.53
2023-03-26T18:00:30.762Z,96432.63
2023-03-26T18:03:03.059Z,96430.53
2023-03-26T18:05:31.358Z,96432.41
2023-03-26T18:08:39.292Z,96437.94
2023-03-26T18:11:12.527Z,96437.06
2023-03-26T18:13:45.820Z,96437.56
2023-03-26T18:16:17.865Z,96447.06
2023-03-26T18:18:54.561Z,96449.97
2023-03-26T18:21:24.740Z,96446.84
2023-03-26T18:23:52.747Z,96448.69
2023-03-26T18:26:31.702Z,96442.81
2023-03-26T18:29:24.050Z,96442.91
2023-03-26T18:31:57.856Z,96445.50
2023-03-26T18:34:29.274Z,96444.34
2023-03-26T18:37:03.080Z,96446.47
2023-03-26T18:39:30.610Z,96443.47
2023-03-26T18:41:58.469Z,96441.06
2023-03-26T18:44:27.620Z,96435.88
2023-03-26T18:46:55.529Z,96443.72
2023-03-26T18:49:26.046Z,96439.00
2023-03-26T18:51:57.218Z,96436.66
2023-03-26T18:54:30.970Z,96435.38
2023-03-26T18:57:15.152Z,96442.28
2023-03-26T18:59:45.674Z,96436.97
2023-03-26T19:02:14.654Z,96439.63
2023-03-26T19:04:46.777Z,96434.00
2023-03-26T19:07:19.137Z,96424.69
2023-03-26T19:09:46.755Z,96422.03
2023-03-26T19:12:23.210Z,96425.47
2023-03-26T19:14:55.417Z,96420.44
2023-03-26T19:17:26.748Z,96422.53
2023-03-26T19:19:57.578Z,96424.13
2023-03-26T19:22:25.818Z,96422.94
2023-03-26T19:24:59.617Z,96416.09
2023-03-26T19:27:27.569Z,96408.53
2023-03-26T19:29:55.058Z,96402.94
2023-03-26T19:32:34.783Z,96402.63
2023-03-26T19:35:04.473Z,96400.66
2023-03-26T19:37:32.748Z,96401.00
2023-03-26T19:40:07.728Z,96395.38
2023-03-26T19:42:43.434Z,96399.06
2023-03-26T19:45:34.636Z,96392.63
2023-03-26T19:48:14.364Z,96387.69
2023-03-26T19:50:46.090Z,96386.63
2023-03-26T19:53:18.804Z,96382.03
2023-03-26T19:56:13.551Z,96379.31
2023-03-26T19:58:42.304Z,96367.03
2023-03-26T20:01:23.867Z,96371.25
2023-03-26T20:03:55.980Z,96363.06
2023-03-26T20:06:33.944Z,96369.13
2023-03-26T20:09:05.903Z,96362.03
2023-03-26T20:11:38.534Z,96359.88
2023-03-26T20:14:20.002Z,96359.53
2023-03-26T20:16:47.536Z,96357.16
2023-03-26T20:19:15.499Z,96357.59
2023-03-26T20:21:44.530Z,96349.78
2023-03-26T20:24:17.588Z,96348.91
2023-03-26T20:26:48.343Z,96350.97
2023-03-26T20:29:16.660Z,96345.78
2023-03-26T20:31:44.441Z,96349.91
2023-03-26T20:34:22.721Z,96343.50
2023-03-26T20:37:01.362Z,96338.44
2023-03-26T20:39:29.402Z,96328.56
2023-03-26T20:41:57.162Z,96336.19
2023-03-26T20:44:26.923Z,96332.28
2023-03-26T20:46:56.636Z,96341.50
2023-03-26T20:49:25.158Z,96326.78
2023-03-26T20:51:52.890Z,96328.56
2023-03-26T20:54:23.764Z,96334.97
2023-03-26T20:56:52.571Z,96327.03
2023-03-26T20:59:27.072Z,96329.06
2023-03-26T21:01:57.909Z,96333.66
2023-03-26T21:04:26.752Z,96334.63
2023-03-26T21:07:00.251Z,96329.97
2023-03-26T21:09:35.434Z,96335.13
2023-03-26T21:12:09.819Z,96334.91
2023-03-26T21:14:41.931Z,96335.94
2023-03-26T21:17:20.778Z,96344.91
2023-03-26T21:19:49.377Z,96347.78
2023-03-26T21:23:15.565Z,96359.97
2023-03-26T21:26:06.667Z,96364.81
2023-03-26T21:28:47.728Z,96371.34
2023-03-26T21:31:22.550Z,96381.66
2023-03-26T21:33:51.224Z,96375.91
2023-03-26T21:36:23.135Z,96386.00
2023-03-26T21:38:51.138Z,96374.41
2023-03-26T21:41:24.488Z,96384.41
2023-03-26T21:43:51.984Z,96376.34
2023-03-26T21:46:20.097Z,96370.94
2023-03-26T21:48:48.009Z,96362.41
2023-03-26T21:51:19.342Z,96368.44
2023-03-26T21:53:47.234Z,96366.50
2023-03-26T21:56:33.542Z,96362.03
2023-03-26T21:59:38.189Z,96370.19
2023-03-26T22:02:33.385Z,96371.31
2023-03-26T22:05:20.048Z,96378.16
2023-03-26T22:07:53.410Z,96387.63
2023-03-26T22:10:21.679Z,96382.72
2023-03-26T22:12:49.854Z,96383.41
2023-03-26T22:15:18.616Z,96388.94
2023-03-26T22:17:54.077Z,96382.06
2023-03-26T22:20:25.297Z,96385.16
2023-03-26T22:22:53.524Z,96379.75
2023-03-26T22:25:22.499Z,96375.06
2023-03-26T22:27:51.231Z,96370.22
2023-03-26T22:30:20.908Z,96371.16
2023-03-26T22:32:49.064Z,96374.16
2023-03-26T22:35:16.797Z,96371.41
2023-03-26T22:37:44.422Z,96372.56
2023-03-26T22:40:15.394Z,96361.28
2023-03-26T22:42:42.890Z,96364.06
2023-03-26T22:45:11.417Z,96373.03
2023-03-26T22:47:39.227Z,96364.97
2023-03-26T22:50:08.978Z,96366.50
2023-03-26T22:52:37.147Z,96370.16
2023-03-26T22:55:05.455Z,96376.63
2023-03-26T22:57:33.613Z,96378.81
2023-03-26T23:00:15.039Z,96381.00
2023-03-26T23:02:45.123Z,96383.97
2023-03-26T23:05:14.131Z,96381.44
2023-03-26T23:07:42.660Z,96379.84
2023-03-26T23:10:11.365Z,96391.69
2023-03-26T23:13:28.758Z,96389.72
2023-03-26T23:15:57.252Z,96387.53
2023-03-26T23:18:25.017Z,96386.72
2023-03-26T23:20:55.799Z,96386.28
2023-03-26T23:23:34.417Z,96380.31
2023-03-26T23:26:04.675Z,96394.66
2023-03-26T23:28:33.605Z,96392.25
2023-03-26T23:31:04.545Z,96389.94
2023-03-26T23:33:35.581Z,96394.66
2023-03-26T23:36:07.537Z,96400.16
2023-03-26T23:38:43.700Z,96404.19
2023-03-26T23:41:15.872Z,96415.91
2023-03-26T23:43:53.413Z,96405.00
2023-03-26T23:46:34.922Z,96406.59
2023-03-26T23:49:03.646Z,96410.03
2023-03-26T23:51:32.680Z,96412.00
2023-03-26T23:54:00.793Z,96406.25
2023-03-26T23:56:29.988Z,96415.19
2023-03-26T23:58:59.273Z,96415.47
